Flight Track Log - Related Links

Times and Time Zones

All times are in EDT time to prevent confusion due to time zone crossing. See the FIN666 flight status page for this flight to view local times or setup timezone preferences in your user account.

Time Position Orientation Groundspeed Altitude Reporting Facility
EDT Latitude Longitude Course Direction KTS MPH feet Rate Location/Type
Mon 08:23:00 AM 55.9164 13.2747 49° Northeast  Level Estimated
Mon 08:24:00 AM 55.9905 13.4309 50° Northeast  Level Estimated
Mon 08:25:00 AM 56.0644 13.5877 50° Northeast  Level Estimated
Mon 08:26:00 AM 56.1381 13.7451 50° Northeast  Level Estimated
Mon 08:27:00 AM 56.2117 13.9031 50° Northeast  Level Estimated
Mon 08:28:00 AM 56.2850 14.0617 50° Northeast  Level Estimated
Mon 08:29:00 AM 56.3581 14.2208 50° Northeast  Level Estimated
Mon 08:30:00 AM 56.4310 14.3807 50° Northeast  Level Estimated
Mon 08:31:00 AM 56.5037 14.5411 51° Northeast  Level Estimated
Mon 08:32:00 AM 56.5762 14.7021 51° Northeast  Level Estimated
Mon 08:33:00 AM 56.6485 14.8638 51° Northeast  Level Estimated
Mon 08:34:00 AM 56.7206 15.0260 51° Northeast  Level Estimated
Mon 08:35:00 AM 56.7925 15.1889 51° Northeast  Level Estimated
Mon 08:36:00 AM 56.8641 15.3525 51° Northeast  Level Estimated
Mon 08:37:00 AM 56.9356 15.5166 51° Northeast  Level Estimated
Mon 08:38:00 AM 57.0068 15.6814 52° Northeast  Level Estimated
Mon 08:39:00 AM 57.0778 15.8468 52° Northeast  Level Estimated
Mon 08:40:00 AM 57.1486 16.0129 52° Northeast  Level Estimated
Mon 08:41:00 AM 57.2192 16.1795 52° Northeast  Level Estimated
Mon 08:42:00 AM 57.2895 16.3468 52° Northeast  Level Estimated
Mon 08:43:00 AM 57.3606 16.5173 52° Northeast  Level Estimated
Mon 08:44:00 AM 57.4315 16.6883 52° Northeast  Level Estimated
Mon 08:45:00 AM 57.5022 16.8600 53° Northeast  Level Estimated
Mon 08:46:00 AM 57.5727 17.0324 53° Northeast  Level Estimated
Mon 08:47:00 AM 57.6429 17.2055 53° Northeast  Level Estimated
Mon 08:48:00 AM 57.7128 17.3792 53° Northeast  Level Estimated
Mon 08:49:00 AM 57.7826 17.5536 53° Northeast  Level Estimated
Mon 08:50:00 AM 57.8521 17.7286 53° Northeast  Level Estimated
Mon 08:51:00 AM 57.9213 17.9044 53° Northeast  Level Estimated
Mon 08:52:00 AM 57.9903 18.0808 54° Northeast  Level Estimated
Mon 08:53:00 AM 58.0591 18.2579 54° Northeast  Level Estimated
Mon 08:54:00 AM 58.1276 18.4357 54° Northeast  Level Estimated
Mon 08:55:00 AM 58.1959 18.6142 54° Northeast  Level Estimated
Mon 08:56:00 AM 58.2639 18.7933 54° Northeast  Level Estimated
Mon 08:57:00 AM 58.3316 18.9732 54° Northeast  Level Estimated
Mon 08:58:00 AM 58.3991 19.1537 54° Northeast  Level Estimated
Mon 08:59:00 AM 58.4664 19.3349 55° Northeast  Level Estimated
Mon 09:00:00 AM 58.5334 19.5168 55° Northeast  Level Estimated
Mon 09:01:00 AM 58.6001 19.6994 55° Northeast  Level Estimated
Mon 09:02:00 AM 58.6666 19.8827 55° Northeast  Level Estimated
Mon 09:03:00 AM 58.7328 20.0667 55° Northeast  Level Estimated
Mon 09:04:00 AM 58.7988 20.2514 55° Northeast  Level Estimated
Mon 09:05:00 AM 58.8645 20.4368 56° Northeast  Level Estimated
Mon 09:06:00 AM 58.9299 20.6230 56° Northeast  Level Estimated
Mon 09:07:00 AM 58.9951 20.8098 56° Northeast  Level Estimated
Mon 09:08:00 AM 59.0600 20.9973 56° Northeast  Level Estimated
Mon 09:09:00 AM 59.1246 21.1855 56° Northeast  Level Estimated
Mon 09:10:00 AM 59.1889 21.3745 56° Northeast  Level Estimated
Mon 09:11:00 AM 59.2530 21.5641 56° Northeast  Level Estimated
Mon 09:12:00 AM 59.3168 21.7545 57° Northeast  Level Estimated
Mon 09:13:00 AM 59.3803 21.9456 57° Northeast  Level Estimated
Mon 09:14:00 AM 59.4435 22.1374 57° Northeast  Level Estimated
Mon 09:15:00 AM 59.5038 22.3218 57° Northeast  Level Estimated
Mon 09:16:00 AM 59.5639 22.5070 57° Northeast  Level Estimated
Mon 09:17:00 AM 59.6237 22.6928 57° Northeast  Level Estimated
Mon 09:18:00 AM 59.6833 22.8792 58° Northeast  Level Estimated
Mon 09:19:00 AM 59.7425 23.0664 58° Northeast  Level Estimated
Mon 09:20:00 AM 59.8015 23.2542 58° Northeast  Level Estimated
Mon 09:21:00 AM 59.8603 23.4426 58° Northeast  Level Estimated
Mon 09:22:00 AM 59.9188 23.6317 58° Northeast  Level Estimated
Mon 09:23:00 AM 59.9770 23.8215 58° Northeast  Level Estimated
Mon 09:24:00 AM 60.0349 24.0119 59° Northeast  Level Estimated
Mon 09:25:00 AM 60.0925 24.2031 59° Northeast  Level Estimated
Mon 09:26:00 AM 60.1499 24.3948 59° Northeast  Level Estimated
Mon 09:27:00 AM 60.2070 24.5873 59° Northeast  Level Estimated
Mon 09:28:00 AM 60.2638 24.7804 59° Northeast  Level Estimated
Mon 09:29:00 AM 60.3172 24.9633 59° Northeast  Level Estimated
Mon 09:30:00 AM 60.3172 24.9633 North  Level Estimated
Mon 09:31:00 AM 60.3172 24.9633 North  Level Estimated
Mon 09:32:00 AM 60.3172 24.9633 North  Level Estimated
Mon 09:33:00 AM 60.3172 24.9633 North  Level Estimated
Mon 09:34:00 AM 60.3172 24.9633 North  Level Estimated
Mon 09:35:00 AM 60.3172 24.9633 North  Level Estimated
Mon 09:36:00 AM 60.3172 24.9633 North  Level Estimated
Mon 09:37:00 AM 60.3172 24.9633 North  Level Estimated
Mon 09:38:00 AM 60.3172 24.9633 North  Level Estimated
Mon 09:39:00 AM 60.3172 24.9633 North  Level Estimated
Mon 09:40:00 AM 60.3172 24.9633 North  Level Estimated
Mon 09:41:00 AM 60.3172 24.9633 North  Level Estimated
Mon 09:42:00 AM 60.3172 24.9633 North  Level Estimated
Mon 09:43:00 AM 60.3172 24.9633 North  Level Estimated

Login

Don't have an account? Register now (free) for customized features, flight alerts, and more!